Time;durP1;ratioP1;P1;durP2;ratioP2;P2;SDS_P1;SDS_P2;PMS_P1;PMS_P2;Temp;Humidity;BMP_temperature;BMP_pressure;BME280_temperature;BME280_humidity;BME280_pressure;Samples;Min_cycle;Max_cycle;Signal;HPM_P1;HPM_P2
2020/12/03 00:01:22;;;;;;;47.42;27.77;;;2.20;99.90;;;;;;5032583;28;20663;-86
2020/12/03 00:03:51;;;;;;;46.03;29.98;;;2.20;99.90;;;;;;5031899;28;20246;-87
2020/12/03 00:06:21;;;;;;;50.58;29.85;;;2.30;99.90;;;;;;5041866;28;20201;-84
2020/12/03 00:08:51;;;;;;;47.17;27.63;;;2.30;99.90;;;;;;5052677;28;20216;-86
2020/12/03 00:11:17;;;;;;;48.05;28.65;;;2.20;99.90;;;;;;5036301;28;20213;-85
2020/12/03 00:13:47;;;;;;;46.45;28.88;;;2.20;99.90;;;;;;5048158;28;20198;-84
2020/12/03 00:16:14;;;;;;;47.38;27.80;;;2.20;99.90;;;;;;5044866;28;20211;-85
2020/12/03 00:18:40;;;;;;;51.30;29.02;;;2.20;99.90;;;;;;5036286;28;20219;-86
2020/12/03 00:21:09;;;;;;;53.10;31.90;;;2.20;99.90;;;;;;5032819;28;20195;-86
2020/12/03 00:23:36;;;;;;;47.50;29.52;;;2.10;99.90;;;;;;5030262;28;20191;-86
2020/12/03 00:26:03;;;;;;;48.90;29.35;;;2.10;99.90;;;;;;5031803;28;20203;-86
2020/12/03 00:28:31;;;;;;;48.25;28.38;;;2.10;99.90;;;;;;5031611;28;20240;-85
2020/12/03 00:30:58;;;;;;;46.50;27.55;;;2.20;99.90;;;;;;5031984;28;20211;-85
2020/12/03 00:33:24;;;;;;;50.85;28.85;;;2.20;99.90;;;;;;5031419;28;20657;-86
2020/12/03 00:35:51;;;;;;;49.83;29.10;;;2.20;99.90;;;;;;5031909;28;20198;-86
2020/12/03 00:38:19;;;;;;;54.60;31.52;;;2.20;99.90;;;;;;5031725;28;20276;-86
2020/12/03 00:40:46;;;;;;;47.92;29.85;;;2.20;99.90;;;;;;5052349;28;20215;-85
2020/12/03 00:43:13;;;;;;;44.47;27.05;;;2.20;99.90;;;;;;5047028;28;20664;-86
2020/12/03 00:45:39;;;;;;;50.17;29.30;;;2.20;99.90;;;;;;5032218;28;20188;-86
2020/12/03 00:48:06;;;;;;;58.03;31.17;;;2.30;99.90;;;;;;5031857;28;20716;-85
2020/12/03 00:50:32;;;;;;;50.38;31.55;;;2.30;99.90;;;;;;5032175;28;20200;-85
2020/12/03 00:52:58;;;;;;;50.20;28.88;;;2.30;99.90;;;;;;5053624;28;20183;-82
2020/12/03 00:55:24;;;;;;;50.00;30.85;;;2.30;99.90;;;;;;5047057;28;20199;-85
2020/12/03 00:57:50;;;;;;;52.35;31.15;;;2.30;99.90;;;;;;5030188;28;20200;-86
2020/12/03 01:00:19;;;;;;;55.40;32.17;;;2.20;99.90;;;;;;5031511;28;20215;-85
2020/12/03 01:02:45;;;;;;;48.30;28.92;;;2.20;99.90;;;;;;5031452;28;20204;-86
2020/12/03 01:05:13;;;;;;;50.58;29.20;;;2.30;99.90;;;;;;5031284;28;20186;-85
2020/12/03 01:07:39;;;;;;;47.03;29.30;;;2.30;99.90;;;;;;5031515;28;20192;-86
2020/12/03 01:10:07;;;;;;;47.63;28.63;;;2.30;99.90;;;;;;5031752;28;20202;-86
2020/12/03 01:12:34;;;;;;;48.58;30.58;;;2.30;99.90;;;;;;5031556;28;20207;-86
2020/12/03 01:15:00;;;;;;;60.95;32.17;;;2.30;99.90;;;;;;5031610;28;20203;-86
2020/12/03 01:17:27;;;;;;;52.85;30.48;;;2.30;99.90;;;;;;5030920;28;20191;-86
2020/12/03 01:19:53;;;;;;;50.10;29.25;;;2.20;99.90;;;;;;5031203;28;20228;-86
2020/12/03 01:22:20;;;;;;;51.55;29.40;;;2.20;99.90;;;;;;5031084;28;20673;-86
2020/12/03 01:24:46;;;;;;;52.17;29.45;;;2.20;99.90;;;;;;5031154;28;20217;-84
2020/12/03 01:27:12;;;;;;;52.75;31.83;;;2.30;99.90;;;;;;5031052;28;20207;-86
2020/12/03 01:29:39;;;;;;;57.88;33.45;;;2.30;99.90;;;;;;5031439;28;20219;-86
2020/12/03 01:32:05;;;;;;;51.97;29.67;;;2.20;99.90;;;;;;5030313;28;20195;-85
2020/12/03 01:34:31;;;;;;;50.15;27.92;;;2.30;99.90;;;;;;5034788;28;20206;-85
2020/12/03 01:36:58;;;;;;;53.10;31.63;;;2.30;99.90;;;;;;5034784;28;20261;-86
2020/12/03 01:39:25;;;;;;;51.55;29.90;;;2.30;99.90;;;;;;5035101;28;20627;-86
2020/12/03 01:41:51;;;;;;;56.40;34.22;;;2.30;99.90;;;;;;5034649;28;20206;-84
2020/12/03 01:44:35;;;;;;;49.85;29.02;;;2.30;99.90;;;;;;5034178;28;20198;-85
2020/12/03 01:47:02;;;;;;;61.25;32.10;;;2.30;99.90;;;;;;5034811;28;20203;-85
2020/12/03 01:49:31;;;;;;;51.88;30.50;;;2.30;99.90;;;;;;5034432;28;20211;-85
2020/12/03 01:51:57;;;;;;;50.70;31.02;;;2.30;99.90;;;;;;5034772;28;20195;-86
2020/12/03 01:54:24;;;;;;;48.03;28.92;;;2.20;99.90;;;;;;5034064;28;20211;-86
2020/12/03 01:56:59;;;;;;;49.85;29.05;;;2.30;99.90;;;;;;5044555;28;20203;-86
2020/12/03 01:59:27;;;;;;;54.50;31.73;;;2.30;99.90;;;;;;5031387;28;20211;-87
2020/12/03 02:01:54;;;;;;;56.22;31.30;;;2.30;99.90;;;;;;5033422;28;20199;-87
2020/12/03 02:04:21;;;;;;;47.85;29.50;;;2.30;99.90;;;;;;5032750;28;20200;-87
2020/12/03 02:06:48;;;;;;;52.80;28.48;;;2.40;99.90;;;;;;5034542;28;20214;-87
2020/12/03 02:09:14;;;;;;;55.63;30.77;;;2.30;99.90;;;;;;5034589;28;20215;-86
2020/12/03 02:11:41;;;;;;;58.13;30.35;;;2.30;99.90;;;;;;5033938;28;20224;-86
2020/12/03 02:14:10;;;;;;;54.53;27.52;;;2.40;99.90;;;;;;5034584;28;20196;-87
2020/12/03 02:16:39;;;;;;;48.67;26.55;;;2.40;99.90;;;;;;5033837;28;20196;-87
2020/12/03 02:19:17;;;;;;;55.08;30.20;;;2.40;99.90;;;;;;5032228;28;20224;-87
2020/12/03 02:21:45;;;;;;;54.72;33.03;;;2.40;99.90;;;;;;5034084;28;20687;-86
2020/12/03 02:24:11;;;;;;;55.95;29.80;;;2.30;99.90;;;;;;5034951;28;20201;-86
2020/12/03 02:26:46;;;;;;;62.13;32.08;;;2.30;99.90;;;;;;5044134;28;20200;-85
2020/12/03 02:29:15;;;;;;;60.22;32.20;;;2.30;99.90;;;;;;5039168;28;20214;-87
2020/12/03 02:31:41;;;;;;;56.67;30.77;;;2.30;99.90;;;;;;5042060;28;20198;-87
2020/12/03 02:34:08;;;;;;;60.40;35.50;;;2.20;99.90;;;;;;5036599;28;20199;-87
2020/12/03 02:36:34;;;;;;;53.13;31.10;;;2.30;99.90;;;;;;5034062;28;20246;-86
2020/12/03 02:39:01;;;;;;;57.55;32.92;;;2.20;99.90;;;;;;5034132;28;20228;-86
2020/12/03 02:41:27;;;;;;;53.40;31.65;;;2.30;99.90;;;;;;5028901;28;20195;-86
2020/12/03 02:43:53;;;;;;;54.65;31.38;;;2.20;99.90;;;;;;5041209;28;20293;-86
2020/12/03 02:46:19;;;;;;;52.95;30.23;;;2.20;99.90;;;;;;5047966;28;20652;-86
2020/12/03 02:48:45;;;;;;;53.13;30.15;;;2.20;99.90;;;;;;5034755;28;20289;-87
2020/12/03 02:51:13;;;;;;;50.85;31.30;;;2.20;99.90;;;;;;5034274;28;20207;-86
2020/12/03 02:53:39;;;;;;;50.90;32.70;;;2.30;99.90;;;;;;5033998;28;20353;-86
2020/12/03 02:56:06;;;;;;;53.63;31.70;;;2.30;99.90;;;;;;5031139;28;20200;-86
2020/12/03 02:58:33;;;;;;;57.08;33.70;;;2.20;99.90;;;;;;5033847;28;20695;-87
2020/12/03 03:00:59;;;;;;;60.38;32.83;;;2.20;99.90;;;;;;5033181;28;20219;-86
2020/12/03 03:03:25;;;;;;;54.05;30.40;;;2.10;99.90;;;;;;5033963;28;20199;-87
2020/12/03 03:05:51;;;;;;;61.85;33.05;;;2.00;99.90;;;;;;5032942;28;20194;-87
2020/12/03 03:08:17;;;;;;;52.42;30.30;;;2.00;99.90;;;;;;5033463;28;20226;-87
2020/12/03 03:10:43;;;;;;;58.88;33.35;;;1.90;99.90;;;;;;5046915;28;20180;-87
2020/12/03 03:13:10;;;;;;;56.08;34.67;;;1.90;99.90;;;;;;5059315;28;20180;-87
2020/12/03 03:15:37;;;;;;;56.28;30.63;;;1.90;99.90;;;;;;5034723;28;20202;-87
2020/12/03 03:18:03;;;;;;;51.83;31.88;;;2.00;99.90;;;;;;5033434;28;20212;-86
2020/12/03 03:20:29;;;;;;;58.45;33.13;;;1.90;99.90;;;;;;5033085;28;20282;-86
2020/12/03 03:22:55;;;;;;;58.17;33.53;;;2.00;99.90;;;;;;5033356;28;20677;-86
2020/12/03 03:25:21;;;;;;;51.42;31.02;;;1.90;99.90;;;;;;5032577;28;20194;-86
2020/12/03 03:27:48;;;;;;;53.78;32.17;;;1.90;99.90;;;;;;5033553;28;20203;-86
2020/12/03 03:30:16;;;;;;;52.10;30.13;;;1.80;99.90;;;;;;5032370;28;20198;-86
2020/12/03 03:32:43;;;;;;;51.03;29.17;;;1.80;99.90;;;;;;5033148;28;20254;-86
2020/12/03 03:35:09;;;;;;;58.03;32.90;;;1.90;99.90;;;;;;5032587;28;20200;-86
2020/12/03 03:37:35;;;;;;;54.00;33.47;;;1.80;99.90;;;;;;5033134;28;20199;-86
2020/12/03 03:40:04;;;;;;;57.25;31.50;;;1.90;99.90;;;;;;5032637;28;20269;-87
2020/12/03 03:42:30;;;;;;;60.97;34.60;;;1.90;99.90;;;;;;5032828;28;20579;-86
2020/12/03 03:44:56;;;;;;;59.08;34.10;;;1.90;99.90;;;;;;5032371;28;20467;-87
2020/12/03 03:47:23;;;;;;;51.25;30.02;;;1.90;99.90;;;;;;5033536;28;20190;-87
2020/12/03 03:49:49;;;;;;;47.72;30.05;;;1.90;99.90;;;;;;5032422;28;20242;-87
2020/12/03 03:52:16;;;;;;;50.17;28.42;;;1.90;99.90;;;;;;5033111;28;20203;-87
2020/12/03 03:54:42;;;;;;;57.35;31.55;;;1.90;99.90;;;;;;5032786;28;20194;-87
2020/12/03 03:57:09;;;;;;;56.05;29.65;;;1.90;99.90;;;;;;5032365;28;20273;-86
2020/12/03 03:59:35;;;;;;;54.55;32.30;;;1.90;99.90;;;;;;5032954;28;20278;-86
2020/12/03 04:02:01;;;;;;;57.40;31.65;;;1.90;99.90;;;;;;5036164;28;20195;-86
2020/12/03 04:04:28;;;;;;;49.20;29.60;;;1.90;99.90;;;;;;5039720;28;20194;-87
2020/12/03 04:06:54;;;;;;;56.25;32.47;;;1.90;99.90;;;;;;5031140;28;20202;-86
2020/12/03 04:09:20;;;;;;;59.15;32.45;;;1.90;99.90;;;;;;5032297;28;20256;-87
2020/12/03 04:11:47;;;;;;;53.78;30.65;;;2.00;99.90;;;;;;5032121;28;20203;-86
2020/12/03 04:14:15;;;;;;;47.88;30.75;;;1.90;99.90;;;;;;5032199;28;20219;-86
2020/12/03 04:16:41;;;;;;;49.42;30.30;;;1.90;99.90;;;;;;5031830;28;20233;-87
2020/12/03 04:19:07;;;;;;;49.45;29.92;;;2.00;99.90;;;;;;5032072;28;20218;-87
2020/12/03 04:21:36;;;;;;;53.47;31.25;;;2.00;99.90;;;;;;5035226;28;20195;-87
2020/12/03 04:24:02;;;;;;;46.00;28.67;;;2.10;99.90;;;;;;5038850;28;20664;-86
2020/12/03 04:26:29;;;;;;;49.28;29.92;;;2.10;99.90;;;;;;5035298;28;20266;-87
2020/12/03 04:28:55;;;;;;;48.63;29.92;;;2.10;99.90;;;;;;5032034;28;20226;-87
2020/12/03 04:31:21;;;;;;;51.75;32.30;;;2.10;99.90;;;;;;5029605;28;20683;-86
2020/12/03 04:33:47;;;;;;;57.13;32.58;;;2.20;99.90;;;;;;5032196;28;20679;-87
2020/12/03 04:36:13;;;;;;;53.70;32.92;;;2.20;99.90;;;;;;5031556;28;20656;-86
2020/12/03 04:38:40;;;;;;;51.45;29.35;;;2.20;99.90;;;;;;5032171;28;20219;-87
2020/12/03 04:41:06;;;;;;;48.17;31.85;;;2.20;99.90;;;;;;5030343;28;20228;-87
2020/12/03 04:43:39;;;;;;;53.80;30.23;;;2.20;99.90;;;;;;5040339;28;20204;-85
2020/12/03 04:46:20;;;;;;;53.40;31.10;;;2.20;99.90;;;;;;5046623;28;20202;-88
2020/12/03 04:49:23;;;;;;;57.72;31.23;;;2.20;99.90;;;;;;5048626;28;20224;-87
2020/12/03 04:52:13;;;;;;;55.58;32.08;;;2.20;99.90;;;;;;5038521;28;20687;-87
2020/12/03 04:54:44;;;;;;;59.15;34.13;;;2.20;99.90;;;;;;5030655;28;20203;-88
2020/12/03 04:57:23;;;;;;;55.08;31.30;;;2.30;99.90;;;;;;5030040;28;20213;-87
2020/12/03 04:59:57;;;;;;;50.67;29.40;;;2.30;99.90;;;;;;5031462;28;20227;-87
2020/12/03 05:02:49;;;;;;;56.13;32.22;;;2.30;99.90;;;;;;5029775;28;20204;-88
2020/12/03 05:05:28;;;;;;;54.13;30.67;;;2.30;99.90;;;;;;5030692;28;20204;-87
2020/12/03 05:08:01;;;;;;;50.63;31.60;;;2.30;99.90;;;;;;5031766;28;20287;-86
2020/12/03 05:10:37;;;;;;;59.00;32.58;;;2.30;99.90;;;;;;5034587;28;20204;-87
2020/12/03 05:13:04;;;;;;;54.67;31.85;;;2.20;99.90;;;;;;5035312;28;20560;-86
2020/12/03 05:15:33;;;;;;;49.50;28.27;;;2.30;99.90;;;;;;5035670;28;20249;-86
2020/12/03 05:18:17;;;;;;;53.25;31.05;;;2.30;99.90;;;;;;5035305;28;20359;-86
2020/12/03 05:20:48;;;;;;;58.45;30.95;;;2.30;99.90;;;;;;5034947;28;20222;-87
2020/12/03 05:23:17;;;;;;;58.58;29.83;;;2.30;99.90;;;;;;5035655;28;20199;-86
2020/12/03 05:25:44;;;;;;;50.60;29.38;;;2.30;99.90;;;;;;5035337;28;20674;-86
2020/12/03 05:28:32;;;;;;;52.90;30.05;;;2.40;99.90;;;;;;5041113;28;20214;-87
2020/12/03 05:31:11;;;;;;;52.50;31.33;;;2.40;99.90;;;;;;5060085;28;20175;-87
2020/12/03 05:33:38;;;;;;;51.03;31.40;;;2.40;99.90;;;;;;5035796;28;20192;-86
2020/12/03 05:36:04;;;;;;;55.92;31.73;;;2.40;99.90;;;;;;5038930;28;20184;-87
2020/12/03 05:38:30;;;;;;;48.47;28.25;;;2.40;99.90;;;;;;5037413;28;20227;-87
2020/12/03 05:40:59;;;;;;;46.08;27.58;;;2.50;99.90;;;;;;5035272;28;20281;-86
2020/12/03 05:43:26;;;;;;;39.20;25.65;;;2.50;99.90;;;;;;5035183;28;20276;-86
2020/12/03 05:45:53;;;;;;;50.78;29.08;;;2.50;99.90;;;;;;5032935;28;20674;-86
2020/12/03 05:48:20;;;;;;;53.13;30.38;;;2.60;99.90;;;;;;5035223;28;20215;-86
2020/12/03 05:50:48;;;;;;;58.80;30.52;;;2.60;99.90;;;;;;5034872;28;20205;-86
2020/12/03 05:53:17;;;;;;;44.28;25.75;;;2.60;99.90;;;;;;5034920;28;20200;-87
2020/12/03 05:55:44;;;;;;;43.72;28.20;;;2.70;99.90;;;;;;5034625;28;20585;-87
2020/12/03 05:58:19;;;;;;;52.83;31.65;;;2.70;99.90;;;;;;5034865;28;20237;-88
2020/12/03 06:00:46;;;;;;;48.08;30.25;;;2.70;99.90;;;;;;5033836;28;20214;-87
2020/12/03 06:03:39;;;;;;;43.63;26.42;;;2.70;99.90;;;;;;5034925;28;20204;-88
2020/12/03 06:06:35;;;;;;;41.90;28.17;;;2.70;99.90;;;;;;5033724;28;20255;-87
2020/12/03 06:09:11;;;;;;;42.25;26.50;;;2.70;99.90;;;;;;5032768;28;20635;-87
2020/12/03 06:11:46;;;;;;;37.03;25.38;;;2.70;99.90;;;;;;5033009;28;20199;-87
2020/12/03 06:14:30;;;;;;;38.85;24.80;;;2.80;99.90;;;;;;5033310;28;20209;-87
2020/12/03 06:17:04;;;;;;;39.45;25.13;;;2.80;99.90;;;;;;5034320;28;20208;-86
2020/12/03 06:19:43;;;;;;;38.80;25.27;;;2.70;99.90;;;;;;5033214;28;20228;-87
2020/12/03 06:22:20;;;;;;;47.38;27.20;;;2.70;99.90;;;;;;5032366;28;20195;-86
2020/12/03 06:25:03;;;;;;;49.90;26.90;;;2.70;99.90;;;;;;5031657;28;20204;-87
2020/12/03 06:28:01;;;;;;;46.05;26.55;;;2.80;99.90;;;;;;5034599;28;20207;-86
2020/12/03 06:30:29;;;;;;;38.97;26.17;;;2.80;99.90;;;;;;5034350;28;20662;-86
2020/12/03 06:33:05;;;;;;;45.55;27.67;;;2.70;99.90;;;;;;5035522;28;20255;-86
2020/12/03 06:35:38;;;;;;;33.60;23.75;;;2.70;99.90;;;;;;5034472;28;20208;-86
2020/12/03 06:38:27;;;;;;;35.20;23.13;;;2.90;99.90;;;;;;5033764;28;20236;-87
2020/12/03 06:41:01;;;;;;;33.15;19.92;;;2.90;99.90;;;;;;5031976;28;20216;-87
2020/12/03 06:43:33;;;;;;;31.23;20.38;;;2.90;99.90;;;;;;5033190;28;20209;-86
2020/12/03 06:46:40;;;;;;;30.48;23.40;;;2.90;99.90;;;;;;5042375;28;20201;-86
2020/12/03 06:49:45;;;;;;;35.03;20.30;;;3.00;99.90;;;;;;5042696;28;20756;-88
2020/12/03 06:52:42;;;;;;;20.47;14.33;;;2.90;99.90;;;;;;5038690;28;20581;-87
2020/12/03 06:55:42;;;;;;;15.70;12.33;;;3.00;99.90;;;;;;5030763;28;20452;-87
2020/12/03 06:58:41;;;;;;;16.83;11.43;;;3.10;99.90;;;;;;5032654;28;20544;-87
2020/12/03 07:01:37;;;;;;;16.83;12.95;;;3.20;99.90;;;;;;5035268;28;20228;-86
2020/12/03 07:04:43;;;;;;;18.60;12.65;;;3.20;99.90;;;;;;5011889;28;20715;-86
2020/12/03 07:07:57;;;;;;;20.03;13.40;;;3.20;99.90;;;;;;5017442;28;20205;-87
2020/12/03 07:11:00;;;;;;;21.00;14.13;;;3.30;99.90;;;;;;5023546;28;20439;-87
2020/12/03 07:14:08;;;;;;;20.08;14.48;;;3.20;99.90;;;;;;5032251;28;20801;-87
2020/12/03 07:17:17;;;;;;;18.33;13.45;;;3.20;99.90;;;;;;5023475;28;20201;-87
2020/12/03 07:20:14;;;;;;;21.83;15.05;;;3.30;99.90;;;;;;4985502;28;20286;-87
2020/12/03 07:22:45;;;;;;;20.45;15.32;;;3.30;99.90;;;;;;5033759;28;20701;-87
2020/12/03 07:25:13;;;;;;;20.60;13.30;;;3.30;99.90;;;;;;5032961;28;20666;-87
2020/12/03 07:28:08;;;;;;;17.83;14.17;;;3.30;99.90;;;;;;5033486;28;20205;-86
2020/12/03 07:30:40;;;;;;;20.00;13.73;;;3.30;99.90;;;;;;5033063;28;20514;-87
2020/12/03 07:33:12;;;;;;;16.80;12.85;;;3.30;99.90;;;;;;5033216;28;20205;-87
2020/12/03 07:35:46;;;;;;;16.75;12.77;;;3.40;99.90;;;;;;5032761;28;20197;-86
2020/12/03 07:38:19;;;;;;;19.33;13.23;;;3.40;99.90;;;;;;5033122;28;20221;-87
2020/12/03 07:40:51;;;;;;;17.70;13.65;;;3.40;99.90;;;;;;5036610;28;20210;-87
2020/12/03 07:43:20;;;;;;;21.47;14.07;;;3.50;99.90;;;;;;5033050;28;20232;-87
2020/12/03 07:45:49;;;;;;;18.53;12.73;;;3.50;99.90;;;;;;5035987;28;20905;-87
2020/12/03 07:48:19;;;;;;;20.70;15.20;;;3.60;99.90;;;;;;5058509;28;20459;-87
2020/12/03 07:50:50;;;;;;;20.20;14.43;;;3.60;99.90;;;;;;5041482;28;20497;-86
2020/12/03 07:53:22;;;;;;;20.33;13.33;;;3.60;99.90;;;;;;5033610;28;20667;-87
2020/12/03 07:55:48;;;;;;;18.17;13.50;;;3.60;99.90;;;;;;5032481;28;20460;-87
2020/12/03 07:58:34;;;;;;;18.95;13.48;;;3.60;99.90;;;;;;5032906;28;20847;-87
2020/12/03 08:01:01;;;;;;;19.03;13.87;;;3.60;99.90;;;;;;5032750;28;20312;-86
2020/12/03 08:03:45;;;;;;;23.43;15.87;;;3.70;99.90;;;;;;5032919;28;20447;-87
2020/12/03 08:06:18;;;;;;;27.60;19.60;;;3.60;99.90;;;;;;5038655;28;20462;-86
2020/12/03 08:08:45;;;;;;;20.30;14.67;;;3.70;99.90;;;;;;5031830;28;21029;-89
2020/12/03 08:11:38;;;;;;;25.55;16.35;;;3.80;99.90;;;;;;5035231;28;20421;-84
2020/12/03 08:14:05;;;;;;;28.20;18.98;;;3.80;99.90;;;;;;5036472;28;20208;-84
2020/12/03 08:16:34;;;;;;;20.98;14.73;;;3.90;99.90;;;;;;5039460;28;20665;-84
2020/12/03 08:19:02;;;;;;;16.27;10.87;;;3.90;99.90;;;;;;5030110;28;20216;-90
2020/12/03 08:21:41;;;;;;;18.00;8.80;;;3.90;99.90;;;;;;5032968;28;20856;-90
2020/12/03 08:24:16;;;;;;;10.63;6.90;;;3.80;99.90;;;;;;5032120;28;20910;-89
2020/12/03 08:26:42;;;;;;;7.60;6.70;;;3.80;99.90;;;;;;5032530;28;20442;-90
2020/12/03 08:29:20;;;;;;;6.77;5.40;;;3.90;99.90;;;;;;5032655;28;20245;-89
2020/12/03 08:31:46;;;;;;;14.02;6.85;;;3.90;99.90;;;;;;5034380;28;20933;-89
2020/12/03 08:34:13;;;;;;;16.03;5.60;;;3.90;99.90;;;;;;5047447;28;20267;-90
2020/12/03 08:36:39;;;;;;;13.18;6.43;;;4.00;99.90;;;;;;5033313;28;20440;-90
2020/12/03 08:39:05;;;;;;;11.27;7.30;;;4.00;99.90;;;;;;5032165;28;20217;-89
2020/12/03 08:41:31;;;;;;;11.77;10.00;;;4.10;99.90;;;;;;5031163;28;20825;-90
2020/12/03 08:44:03;;;;;;;18.90;11.48;;;4.10;99.90;;;;;;5032381;28;20463;-90
2020/12/03 08:46:33;;;;;;;17.13;12.27;;;4.10;99.90;;;;;;5031501;28;20195;-90
2020/12/03 08:48:59;;;;;;;16.90;12.37;;;4.20;99.90;;;;;;5031774;28;20472;-90
2020/12/03 08:51:26;;;;;;;15.27;11.30;;;4.30;99.90;;;;;;5032736;28;20492;-89
2020/12/03 08:53:53;;;;;;;15.57;12.60;;;4.30;99.90;;;;;;5031933;28;20460;-89
2020/12/03 08:56:38;;;;;;;19.97;14.27;;;4.40;99.90;;;;;;5032134;28;20450;-92
2020/12/03 08:59:08;;;;;;;20.60;14.43;;;4.50;99.90;;;;;;5013151;28;20468;-90
2020/12/03 09:01:36;;;;;;;22.53;13.93;;;4.50;99.90;;;;;;5025475;28;20480;-90
2020/12/03 09:04:04;;;;;;;19.67;15.82;;;4.50;99.90;;;;;;5032230;28;20987;-90
2020/12/03 09:06:33;;;;;;;20.30;14.10;;;4.60;99.90;;;;;;5030412;28;20205;-89
2020/12/03 09:09:01;;;;;;;16.57;12.63;;;4.60;99.90;;;;;;5018317;28;20588;-89
2020/12/03 09:11:27;;;;;;;19.70;13.90;;;4.60;99.90;;;;;;5017507;28;20445;-89
2020/12/03 09:13:56;;;;;;;18.83;13.33;;;4.80;99.90;;;;;;5040179;28;20437;-89
2020/12/03 09:16:25;;;;;;;18.10;14.27;;;4.70;99.90;;;;;;5036885;28;21103;-90
2020/12/03 09:18:51;;;;;;;18.77;13.40;;;4.70;99.90;;;;;;5039006;28;20530;-90
2020/12/03 09:21:25;;;;;;;18.00;13.60;;;4.70;99.90;;;;;;5035583;28;20476;-89
2020/12/03 09:23:54;;;;;;;21.47;14.80;;;4.60;99.90;;;;;;5040254;28;20432;-91
2020/12/03 09:26:26;;;;;;;17.17;12.80;;;4.40;99.90;;;;;;5036191;28;20507;-89
2020/12/03 09:28:54;;;;;;;19.33;14.50;;;4.30;99.90;;;;;;5032654;28;20492;-89
2020/12/03 09:31:21;;;;;;;17.63;13.63;;;4.20;99.90;;;;;;5032312;28;20455;-90
2020/12/03 09:33:50;;;;;;;18.93;14.70;;;4.20;99.90;;;;;;5032297;28;20436;-90
2020/12/03 09:36:17;;;;;;;23.63;16.10;;;4.20;99.90;;;;;;5031871;28;20456;-89
2020/12/03 09:38:47;;;;;;;22.20;15.13;;;4.20;99.90;;;;;;5032669;28;20464;-90
2020/12/03 09:41:16;;;;;;;21.63;15.60;;;4.30;99.90;;;;;;5032046;28;20477;-89
2020/12/03 09:43:45;;;;;;;26.50;17.30;;;4.30;99.90;;;;;;5045870;28;20448;-90
2020/12/03 09:46:14;;;;;;;23.77;17.30;;;4.30;99.90;;;;;;5046809;28;20437;-90
2020/12/03 09:48:42;;;;;;;23.87;15.30;;;4.40;99.90;;;;;;5032432;28;20482;-89
2020/12/03 09:51:09;;;;;;;29.47;17.17;;;4.50;99.90;;;;;;5031653;28;20452;-90
2020/12/03 09:53:36;;;;;;;25.57;18.30;;;4.60;99.90;;;;;;5033279;28;20512;-89
2020/12/03 09:56:03;;;;;;;25.40;17.87;;;4.70;99.90;;;;;;5036242;28;20479;-90
2020/12/03 09:58:30;;;;;;;29.03;19.27;;;4.70;99.90;;;;;;5035307;28;20571;-88
2020/12/03 10:01:06;;;;;;;24.70;16.93;;;4.90;99.90;;;;;;5035196;28;20487;-89
2020/12/03 10:04:08;;;;;;;25.87;18.90;;;5.00;99.90;;;;;;5035469;28;20456;-93
2020/12/03 10:06:38;;;;;;;31.43;18.20;;;5.20;99.90;;;;;;5036390;28;20528;-88
2020/12/03 10:09:21;;;;;;;31.93;18.93;;;5.30;99.90;;;;;;5048038;28;20483;-89
2020/12/03 10:12:18;;;;;;;23.17;17.43;;;5.40;99.90;;;;;;5059584;28;20460;-88
2020/12/03 10:15:00;;;;;;;21.90;16.80;;;5.40;99.90;;;;;;5035036;28;20962;-88
2020/12/03 10:17:33;;;;;;;29.70;16.73;;;5.60;99.90;;;;;;5035710;28;20455;-87
2020/12/03 10:20:03;;;;;;;21.73;17.40;;;5.80;99.90;;;;;;5035114;28;20466;-88
2020/12/03 10:22:34;;;;;;;19.10;16.67;;;5.80;99.90;;;;;;5036468;28;20460;-88
2020/12/03 10:25:14;;;;;;;19.57;15.90;;;5.80;99.90;;;;;;5034547;28;20445;-88
2020/12/03 10:27:43;;;;;;;17.03;15.23;;;5.80;99.90;;;;;;5034851;28;20445;-89
2020/12/03 10:30:14;;;;;;;20.33;14.87;;;5.80;99.90;;;;;;5034573;28;20445;-88
2020/12/03 10:32:46;;;;;;;19.70;15.80;;;5.90;99.90;;;;;;5034299;28;20453;-88
2020/12/03 10:35:13;;;;;;;20.27;16.70;;;5.90;99.90;;;;;;5034425;28;20457;-88
2020/12/03 10:37:46;;;;;;;17.40;14.43;;;5.90;99.90;;;;;;5034935;28;20457;-87
2020/12/03 10:40:17;;;;;;;19.40;13.77;;;5.90;99.90;;;;;;5034532;28;20508;-87
2020/12/03 10:42:48;;;;;;;18.83;13.90;;;6.20;99.90;;;;;;5034554;28;20460;-88
2020/12/03 10:45:19;;;;;;;15.47;12.67;;;6.60;99.90;;;;;;5048481;28;20485;-87
2020/12/03 10:47:49;;;;;;;17.87;11.93;;;6.80;99.20;;;;;;5035466;28;20461;-89
2020/12/03 10:50:18;;;;;;;17.57;13.90;;;6.90;98.20;;;;;;5034117;28;20448;-89
2020/12/03 10:52:45;;;;;;;15.07;12.90;;;6.80;98.30;;;;;;5033783;28;20444;-89
2020/12/03 10:55:16;;;;;;;15.20;11.63;;;6.70;97.70;;;;;;5034708;28;20445;-89
2020/12/03 10:57:48;;;;;;;18.57;13.00;;;6.60;97.70;;;;;;5027672;28;20922;-89
2020/12/03 11:00:20;;;;;;;16.63;13.67;;;6.50;98.00;;;;;;5035536;28;20477;-89
2020/12/03 11:02:49;;;;;;;16.17;13.17;;;6.40;98.50;;;;;;5034242;28;20480;-89
2020/12/03 11:05:16;;;;;;;18.57;12.90;;;6.30;98.50;;;;;;5032947;28;20535;-89
2020/12/03 11:07:52;;;;;;;18.03;13.47;;;6.00;98.80;;;;;;5034081;28;20453;-88
2020/12/03 11:10:19;;;;;;;15.90;12.30;;;5.90;98.70;;;;;;5033678;28;20471;-89
2020/12/03 11:12:48;;;;;;;15.53;12.77;;;5.90;98.70;;;;;;5034300;28;20564;-89
2020/12/03 11:15:20;;;;;;;16.40;12.97;;;5.90;99.00;;;;;;5033606;28;20473;-89
2020/12/03 11:18:03;;;;;;;20.50;15.03;;;6.00;99.00;;;;;;5031572;28;20461;-88
2020/12/03 11:20:32;;;;;;;16.00;13.20;;;5.80;99.00;;;;;;5031795;28;20473;-88
2020/12/03 11:23:13;;;;;;;19.37;11.60;;;5.70;99.30;;;;;;5013950;28;20453;-88
2020/12/03 11:25:39;;;;;;;16.23;12.37;;;5.70;99.20;;;;;;5028957;28;20444;-88
2020/12/03 11:28:26;;;;;;;15.67;11.40;;;5.60;99.20;;;;;;5033262;28;20480;-88
2020/12/03 11:31:02;;;;;;;13.83;10.17;;;5.60;98.60;;;;;;5037572;28;20926;-88
2020/12/03 11:33:28;;;;;;;10.63;8.73;;;5.50;98.10;;;;;;5035023;28;20886;-88
2020/12/03 11:36:10;;;;;;;10.20;9.20;;;5.30;98.10;;;;;;5035150;28;21001;-87
2020/12/03 11:38:38;;;;;;;11.87;9.37;;;5.10;98.00;;;;;;5034688;28;20476;-88
2020/12/03 11:41:08;;;;;;;10.77;8.27;;;5.00;98.30;;;;;;5045495;28;20511;-88
2020/12/03 11:49:13;;;;;;;13.00;8.37;;;5.00;98.50;;;;;;5033175;28;20457;-88
2020/12/03 11:51:40;;;;;;;12.03;8.50;;;5.00;98.40;;;;;;5033697;28;20445;-88
2020/12/03 11:54:08;;;;;;;15.27;9.70;;;5.00;98.50;;;;;;5033296;28;21195;-88
2020/12/03 11:56:37;;;;;;;11.43;8.80;;;5.00;98.40;;;;;;5033504;28;20540;-88
2020/12/03 11:59:16;;;;;;;8.93;7.80;;;5.00;98.50;;;;;;5033278;28;20477;-88
2020/12/03 12:01:52;;;;;;;9.90;7.43;;;5.10;99.10;;;;;;5035190;28;20507;-89
2020/12/03 12:04:20;;;;;;;8.90;7.83;;;5.20;99.20;;;;;;5039742;28;20921;-89
2020/12/03 12:07:05;;;;;;;9.97;8.37;;;5.20;98.80;;;;;;5032837;28;20931;-88
2020/12/03 12:09:36;;;;;;;10.37;7.83;;;5.20;98.40;;;;;;5032518;28;20861;-88
2020/12/03 12:12:03;;;;;;;9.53;7.47;;;5.20;98.10;;;;;;5031929;28;20535;-88
2020/12/03 12:14:29;;;;;;;11.83;8.27;;;5.20;98.80;;;;;;5031075;28;20438;-88
2020/12/03 12:16:56;;;;;;;10.80;8.10;;;5.30;98.40;;;;;;5030482;28;20438;-88
2020/12/03 12:19:24;;;;;;;16.30;8.97;;;5.40;98.50;;;;;;5032113;28;20482;-88
2020/12/03 12:21:51;;;;;;;13.40;9.27;;;5.30;98.30;;;;;;5032261;28;20492;-89
2020/12/03 12:24:17;;;;;;;15.60;8.33;;;5.40;98.40;;;;;;5031785;28;20444;-88
2020/12/03 12:26:43;;;;;;;10.90;8.23;;;5.50;98.20;;;;;;5031956;28;20445;-88
2020/12/03 12:29:09;;;;;;;9.27;7.70;;;5.50;98.20;;;;;;5032260;28;20472;-88
2020/12/03 12:31:35;;;;;;;12.60;8.37;;;5.60;97.90;;;;;;5040096;28;20968;-88
2020/12/03 12:34:02;;;;;;;11.17;8.33;;;5.60;98.10;;;;;;5046134;28;20449;-88
2020/12/03 12:36:29;;;;;;;14.90;9.50;;;5.60;98.20;;;;;;5033723;28;20452;-88
2020/12/03 12:38:55;;;;;;;12.83;8.40;;;5.60;98.20;;;;;;5032110;28;20476;-88
2020/12/03 12:41:21;;;;;;;10.10;8.87;;;5.60;97.90;;;;;;5031734;28;20491;-89
2020/12/03 12:43:47;;;;;;;10.07;8.97;;;5.50;98.40;;;;;;5031846;28;20864;-86
2020/12/03 12:46:19;;;;;;;12.23;9.00;;;5.60;98.30;;;;;;5032167;28;20446;-87
2020/12/03 12:48:45;;;;;;;11.30;9.80;;;5.50;98.00;;;;;;5032788;28;20477;-88
2020/12/03 12:51:13;;;;;;;10.87;8.40;;;5.50;98.10;;;;;;5032128;28;20441;-88
2020/12/03 12:53:39;;;;;;;8.33;7.20;;;5.50;98.30;;;;;;5032916;28;20926;-87
2020/12/03 12:56:05;;;;;;;13.40;8.70;;;5.60;98.20;;;;;;5033588;28;20433;-88
2020/12/03 12:58:31;;;;;;;10.77;8.93;;;5.50;98.20;;;;;;5032304;28;20957;-88
2020/12/03 13:00:57;;;;;;;10.93;7.97;;;5.50;98.20;;;;;;5032939;28;20489;-88
2020/12/03 13:03:23;;;;;;;15.53;8.13;;;5.40;98.20;;;;;;5033287;28;20923;-88
2020/12/03 13:05:53;;;;;;;13.80;9.23;;;5.50;98.50;;;;;;5034442;28;20445;-88